sensor_id;sensor_type;location;lat;lon;timestamp;pressure;altitude;pressure_sealevel;temperature;humidity
49827;BME280;35715;51.570;6.036;2023-07-13T00:00:27;101285.09;;;19.15;56.47
49827;BME280;35715;51.570;6.036;2023-07-13T00:02:52;101284.13;;;19.13;56.64
49827;BME280;35715;51.570;6.036;2023-07-13T00:05:22;101292.84;;;19.12;57.00
49827;BME280;35715;51.570;6.036;2023-07-13T00:07:49;101290.97;;;19.10;56.36
49827;BME280;35715;51.570;6.036;2023-07-13T00:10:16;101286.44;;;19.06;56.67
49827;BME280;35715;51.570;6.036;2023-07-13T00:12:41;101293.16;;;18.99;56.85
49827;BME280;35715;51.570;6.036;2023-07-13T00:15:15;101286.16;;;18.98;56.55
49827;BME280;35715;51.570;6.036;2023-07-13T00:17:41;101293.03;;;18.96;56.62
49827;BME280;35715;51.570;6.036;2023-07-13T00:20:10;101295.53;;;18.93;56.90
49827;BME280;35715;51.570;6.036;2023-07-13T00:22:36;101302.53;;;18.94;56.89
49827;BME280;35715;51.570;6.036;2023-07-13T00:25:02;101295.34;;;18.88;56.78
49827;BME280;35715;51.570;6.036;2023-07-13T00:27:28;101303.78;;;18.83;56.99
49827;BME280;35715;51.570;6.036;2023-07-13T00:29:57;101305.59;;;18.84;57.50
49827;BME280;35715;51.570;6.036;2023-07-13T00:32:22;101302.91;;;18.82;57.41
49827;BME280;35715;51.570;6.036;2023-07-13T00:34:50;101303.84;;;18.84;57.72
49827;BME280;35715;51.570;6.036;2023-07-13T00:37:16;101304.69;;;18.83;57.60
49827;BME280;35715;51.570;6.036;2023-07-13T00:39:41;101313.38;;;18.82;57.65
49827;BME280;35715;51.570;6.036;2023-07-13T00:42:07;101299.44;;;18.83;57.79
49827;BME280;35715;51.570;6.036;2023-07-13T00:44:32;101304.75;;;18.85;58.76
49827;BME280;35715;51.570;6.036;2023-07-13T00:46:57;101304.69;;;18.83;58.44
49827;BME280;35715;51.570;6.036;2023-07-13T00:49:25;101314.25;;;18.83;58.68
49827;BME280;35715;51.570;6.036;2023-07-13T00:51:58;101307.94;;;18.77;58.78
49827;BME280;35715;51.570;6.036;2023-07-13T00:54:29;101305.97;;;18.72;59.25
49827;BME280;35715;51.570;6.036;2023-07-13T00:56:59;101302.31;;;18.68;59.15
49827;BME280;35715;51.570;6.036;2023-07-13T00:59:25;101307.75;;;18.52;59.25
49827;BME280;35715;51.570;6.036;2023-07-13T01:01:51;101309.38;;;18.50;59.23
49827;BME280;35715;51.570;6.036;2023-07-13T01:04:17;101305.06;;;18.50;59.15
49827;BME280;35715;51.570;6.036;2023-07-13T01:06:43;101315.38;;;18.47;59.80
49827;BME280;35715;51.570;6.036;2023-07-13T01:09:10;101304.88;;;18.46;59.60
49827;BME280;35715;51.570;6.036;2023-07-13T01:11:36;101310.09;;;18.46;59.54
49827;BME280;35715;51.570;6.036;2023-07-13T01:14:02;101311.78;;;18.45;59.97
49827;BME280;35715;51.570;6.036;2023-07-13T01:16:32;101310.03;;;18.44;60.43
49827;BME280;35715;51.570;6.036;2023-07-13T01:18:59;101309.88;;;18.41;60.14
49827;BME280;35715;51.570;6.036;2023-07-13T01:21:27;101318.63;;;18.41;60.23
49827;BME280;35715;51.570;6.036;2023-07-13T01:23:53;101322.06;;;18.40;60.32
49827;BME280;35715;51.570;6.036;2023-07-13T01:26:19;101319.38;;;18.39;60.18
49827;BME280;35715;51.570;6.036;2023-07-13T01:28:45;101317.50;;;18.36;60.58
49827;BME280;35715;51.570;6.036;2023-07-13T01:31:13;101313.81;;;18.31;60.67
49827;BME280;35715;51.570;6.036;2023-07-13T01:33:40;101314.44;;;18.25;60.69
49827;BME280;35715;51.570;6.036;2023-07-13T01:36:07;101312.53;;;18.21;60.80
49827;BME280;35715;51.570;6.036;2023-07-13T01:38:34;101309.06;;;18.22;61.05
49827;BME280;35715;51.570;6.036;2023-07-13T01:41:00;101304.69;;;18.21;60.84
49827;BME280;35715;51.570;6.036;2023-07-13T01:43:26;101309.69;;;18.17;60.81
49827;BME280;35715;51.570;6.036;2023-07-13T01:45:51;101308.81;;;18.16;61.12
49827;BME280;35715;51.570;6.036;2023-07-13T01:48:17;101304.56;;;18.18;61.20
49827;BME280;35715;51.570;6.036;2023-07-13T01:50:42;101300.84;;;18.13;61.35
49827;BME280;35715;51.570;6.036;2023-07-13T01:53:08;101303.19;;;18.07;61.75
49827;BME280;35715;51.570;6.036;2023-07-13T01:55:35;101304.97;;;18.08;61.39
49827;BME280;35715;51.570;6.036;2023-07-13T01:58:01;101302.38;;;18.08;61.48
49827;BME280;35715;51.570;6.036;2023-07-13T02:00:26;101310.34;;;18.11;62.02
49827;BME280;35715;51.570;6.036;2023-07-13T02:02:52;101310.47;;;18.14;62.03
49827;BME280;35715;51.570;6.036;2023-07-13T02:05:17;101306.94;;;18.14;62.02
49827;BME280;35715;51.570;6.036;2023-07-13T02:07:43;101307.00;;;18.15;62.28
49827;BME280;35715;51.570;6.036;2023-07-13T02:10:09;101305.31;;;18.16;62.06
49827;BME280;35715;51.570;6.036;2023-07-13T02:12:36;101295.06;;;18.20;61.86
49827;BME280;35715;51.570;6.036;2023-07-13T02:15:03;101304.69;;;18.21;61.98
49827;BME280;35715;51.570;6.036;2023-07-13T02:17:29;101301.44;;;18.27;62.35
49827;BME280;35715;51.570;6.036;2023-07-13T02:19:54;101306.78;;;18.30;62.02
49827;BME280;35715;51.570;6.036;2023-07-13T02:22:21;101306.84;;;18.32;62.31
49827;BME280;35715;51.570;6.036;2023-07-13T02:24:46;101306.84;;;18.32;62.05
49827;BME280;35715;51.570;6.036;2023-07-13T02:27:12;101306.59;;;18.25;62.53
49827;BME280;35715;51.570;6.036;2023-07-13T02:29:37;101318.72;;;18.23;62.49
49827;BME280;35715;51.570;6.036;2023-07-13T02:32:03;101314.03;;;18.16;62.76
49827;BME280;35715;51.570;6.036;2023-07-13T02:34:30;101319.88;;;18.11;63.02
49827;BME280;35715;51.570;6.036;2023-07-13T02:36:55;101319.88;;;18.11;62.85
49827;BME280;35715;51.570;6.036;2023-07-13T02:39:20;101311.09;;;18.08;62.93
49827;BME280;35715;51.570;6.036;2023-07-13T02:41:46;101315.28;;;18.05;63.10
49827;BME280;35715;51.570;6.036;2023-07-13T02:44:13;101318.44;;;17.98;63.22
49827;BME280;35715;51.570;6.036;2023-07-13T02:46:39;101323.53;;;17.95;63.68
49827;BME280;35715;51.570;6.036;2023-07-13T02:49:05;101324.34;;;17.94;63.66
49827;BME280;35715;51.570;6.036;2023-07-13T02:51:31;101319.88;;;17.91;64.07
49827;BME280;35715;51.570;6.036;2023-07-13T02:54:02;101322.31;;;17.88;63.92
49827;BME280;35715;51.570;6.036;2023-07-13T02:56:30;101316.13;;;17.86;64.26
49827;BME280;35715;51.570;6.036;2023-07-13T02:58:55;101326.44;;;17.83;64.52
49827;BME280;35715;51.570;6.036;2023-07-13T03:01:22;101314.91;;;17.78;64.53
49827;BME280;35715;51.570;6.036;2023-07-13T03:03:48;101313.84;;;17.74;64.96
49827;BME280;35715;51.570;6.036;2023-07-13T03:06:15;101318.78;;;17.68;65.13
49827;BME280;35715;51.570;6.036;2023-07-13T03:08:42;101322.06;;;17.64;65.25
49827;BME280;35715;51.570;6.036;2023-07-13T03:11:11;101322.97;;;17.64;65.10
49827;BME280;35715;51.570;6.036;2023-07-13T03:13:39;101327.22;;;17.62;65.24
49827;BME280;35715;51.570;6.036;2023-07-13T03:16:05;101333.28;;;17.61;65.86
49827;BME280;35715;51.570;6.036;2023-07-13T03:18:31;101330.59;;;17.60;65.71
49827;BME280;35715;51.570;6.036;2023-07-13T03:20:57;101331.25;;;17.55;65.74
49827;BME280;35715;51.570;6.036;2023-07-13T03:23:23;101330.31;;;17.53;66.05
49827;BME280;35715;51.570;6.036;2023-07-13T03:25:50;101334.47;;;17.50;65.96
49827;BME280;35715;51.570;6.036;2023-07-13T03:28:16;101342.38;;;17.51;66.28
49827;BME280;35715;51.570;6.036;2023-07-13T03:30:42;101339.69;;;17.50;65.98
49827;BME280;35715;51.570;6.036;2023-07-13T03:33:07;101343.22;;;17.50;66.47
49827;BME280;35715;51.570;6.036;2023-07-13T03:35:34;101344.84;;;17.48;66.21
49827;BME280;35715;51.570;6.036;2023-07-13T03:37:59;101339.53;;;17.47;66.40
49827;BME280;35715;51.570;6.036;2023-07-13T03:40:26;101346.34;;;17.43;66.29
49827;BME280;35715;51.570;6.036;2023-07-13T03:42:52;101346.34;;;17.43;66.65
49827;BME280;35715;51.570;6.036;2023-07-13T03:45:18;101347.81;;;17.38;66.71
49827;BME280;35715;51.570;6.036;2023-07-13T03:47:44;101355.50;;;17.35;66.83
49827;BME280;35715;51.570;6.036;2023-07-13T03:50:09;101359.81;;;17.34;66.69
49827;BME280;35715;51.570;6.036;2023-07-13T03:52:35;101358.88;;;17.32;67.01
49827;BME280;35715;51.570;6.036;2023-07-13T03:55:00;101355.34;;;17.32;66.87
49827;BME280;35715;51.570;6.036;2023-07-13T03:57:26;101367.44;;;17.30;67.25
49827;BME280;35715;51.570;6.036;2023-07-13T03:59:51;101358.72;;;17.29;67.25
49827;BME280;35715;51.570;6.036;2023-07-13T04:02:17;101365.63;;;17.29;67.43
49827;BME280;35715;51.570;6.036;2023-07-13T04:04:43;101370.69;;;17.26;67.51
49827;BME280;35715;51.570;6.036;2023-07-13T04:07:08;101370.78;;;17.27;67.87
49827;BME280;35715;51.570;6.036;2023-07-13T04:09:35;101370.69;;;17.26;67.88
49827;BME280;35715;51.570;6.036;2023-07-13T04:12:00;101369.97;;;17.28;67.67
49827;BME280;35715;51.570;6.036;2023-07-13T04:14:26;101371.47;;;17.23;67.58
49827;BME280;35715;51.570;6.036;2023-07-13T04:16:51;101362.66;;;17.21;67.99
49827;BME280;35715;51.570;6.036;2023-07-13T04:19:17;101372.06;;;17.17;68.28
49827;BME280;35715;51.570;6.036;2023-07-13T04:21:43;101379.06;;;17.18;68.13
49827;BME280;35715;51.570;6.036;2023-07-13T04:24:08;101367.72;;;17.18;68.32
49827;BME280;35715;51.570;6.036;2023-07-13T04:26:34;101369.28;;;17.14;68.02
49827;BME280;35715;51.570;6.036;2023-07-13T04:29:01;101372.72;;;17.13;68.45
49827;BME280;35715;51.570;6.036;2023-07-13T04:31:29;101380.75;;;17.18;68.40
49827;BME280;35715;51.570;6.036;2023-07-13T04:33:54;101381.44;;;17.14;68.63
49827;BME280;35715;51.570;6.036;2023-07-13T04:36:20;101382.19;;;17.11;68.86
49827;BME280;35715;51.570;6.036;2023-07-13T04:38:45;101371.91;;;17.14;68.95
49827;BME280;35715;51.570;6.036;2023-07-13T04:41:12;101377.19;;;17.16;69.25
49827;BME280;35715;51.570;6.036;2023-07-13T04:43:38;101376.47;;;17.18;69.53
49827;BME280;35715;51.570;6.036;2023-07-13T04:46:06;101379.94;;;17.19;69.83
49827;BME280;35715;51.570;6.036;2023-07-13T04:48:32;101385.97;;;17.18;69.95
49827;BME280;35715;51.570;6.036;2023-07-13T04:50:58;101381.44;;;17.14;70.36
49827;BME280;35715;51.570;6.036;2023-07-13T04:53:24;101374.72;;;17.19;70.17
49827;BME280;35715;51.570;6.036;2023-07-13T04:55:50;101383.66;;;17.24;70.03
49827;BME280;35715;51.570;6.036;2023-07-13T04:58:15;101397.47;;;17.22;70.59
49827;BME280;35715;51.570;6.036;2023-07-13T05:00:41;101398.59;;;17.27;70.47
49827;BME280;35715;51.570;6.036;2023-07-13T05:03:06;101403.22;;;17.32;70.54
49827;BME280;35715;51.570;6.036;2023-07-13T05:05:32;101401.72;;;17.37;70.39
49827;BME280;35715;51.570;6.036;2023-07-13T05:07:58;101409.53;;;17.37;70.65
49827;BME280;35715;51.570;6.036;2023-07-13T05:10:23;101416.56;;;17.38;71.01
49827;BME280;35715;51.570;6.036;2023-07-13T05:12:49;101408.50;;;17.34;71.23
49827;BME280;35715;51.570;6.036;2023-07-13T05:15:15;101408.72;;;17.38;71.54
49827;BME280;35715;51.570;6.036;2023-07-13T05:17:40;101413.50;;;17.47;71.17
49827;BME280;35715;51.570;6.036;2023-07-13T05:20:07;101410.78;;;17.64;71.46
49827;BME280;35715;51.570;6.036;2023-07-13T05:22:33;101416.56;;;17.74;70.76
49827;BME280;35715;51.570;6.036;2023-07-13T05:25:01;101411.06;;;17.88;70.58
49827;BME280;35715;51.570;6.036;2023-07-13T05:27:26;101411.56;;;17.97;70.73
49827;BME280;35715;51.570;6.036;2023-07-13T05:29:52;101414.59;;;18.06;70.34
49827;BME280;35715;51.570;6.036;2023-07-13T05:32:18;101417.34;;;18.09;70.34
49827;BME280;35715;51.570;6.036;2023-07-13T05:34:43;101413.22;;;18.15;70.37
49827;BME280;35715;51.570;6.036;2023-07-13T05:37:09;101415.63;;;18.30;70.54
49827;BME280;35715;51.570;6.036;2023-07-13T05:39:34;101418.53;;;18.36;70.11
49827;BME280;35715;51.570;6.036;2023-07-13T05:42:00;101430.38;;;18.47;69.62
49827;BME280;35715;51.570;6.036;2023-07-13T05:44:26;101430.50;;;18.50;69.95
49827;BME280;35715;51.570;6.036;2023-07-13T05:46:51;101430.00;;;18.59;69.88
49827;BME280;35715;51.570;6.036;2023-07-13T05:49:17;101430.47;;;18.70;69.63
49827;BME280;35715;51.570;6.036;2023-07-13T05:51:42;101425.84;;;18.84;69.77
49827;BME280;35715;51.570;6.036;2023-07-13T05:54:08;101426.91;;;18.87;69.38
49827;BME280;35715;51.570;6.036;2023-07-13T05:56:33;101437.06;;;19.01;69.28
49827;BME280;35715;51.570;6.036;2023-07-13T05:58:59;101430.91;;;18.99;69.10
49827;BME280;35715;51.570;6.036;2023-07-13T06:01:24;101434.25;;;18.96;69.30
49827;BME280;35715;51.570;6.036;2023-07-13T06:03:49;101443.13;;;19.00;69.26
49827;BME280;35715;51.570;6.036;2023-07-13T06:06:16;101448.41;;;19.01;69.38
49827;BME280;35715;51.570;6.036;2023-07-13T06:08:41;101444.56;;;19.12;69.32
49827;BME280;35715;51.570;6.036;2023-07-13T06:11:17;101444.56;;;19.12;69.45
49827;BME280;35715;51.570;6.036;2023-07-13T06:13:43;101453.22;;;19.11;69.18
49827;BME280;35715;51.570;6.036;2023-07-13T06:16:08;101454.09;;;19.12;68.97
49827;BME280;35715;51.570;6.036;2023-07-13T06:18:35;101457.09;;;19.21;68.80
49827;BME280;35715;51.570;6.036;2023-07-13T06:21:22;101461.91;;;19.31;69.10
49827;BME280;35715;51.570;6.036;2023-07-13T06:23:49;101470.31;;;19.45;68.74
49827;BME280;35715;51.570;6.036;2023-07-13T06:26:15;101478.09;;;19.44;68.29
49827;BME280;35715;51.570;6.036;2023-07-13T06:28:41;101473.28;;;19.53;68.78
49827;BME280;35715;51.570;6.036;2023-07-13T06:31:09;101475.22;;;19.59;68.77
49827;BME280;35715;51.570;6.036;2023-07-13T06:33:34;101473.72;;;19.64;68.77
49827;BME280;35715;51.570;6.036;2023-07-13T06:36:01;101477.41;;;19.69;68.88
49827;BME280;35715;51.570;6.036;2023-07-13T06:38:27;101475.72;;;19.71;68.77
49827;BME280;35715;51.570;6.036;2023-07-13T06:40:52;101482.44;;;19.64;68.59
49827;BME280;35715;51.570;6.036;2023-07-13T06:43:18;101484.06;;;19.61;68.66
49827;BME280;35715;51.570;6.036;2023-07-13T06:45:48;101486.38;;;19.53;68.37
49827;BME280;35715;51.570;6.036;2023-07-13T06:48:18;101485.63;;;19.57;68.72
49827;BME280;35715;51.570;6.036;2023-07-13T06:50:45;101483.41;;;19.66;68.57
49827;BME280;35715;51.570;6.036;2023-07-13T06:53:11;101484.31;;;19.67;68.47
49827;BME280;35715;51.570;6.036;2023-07-13T06:55:37;101486.81;;;19.64;68.79
49827;BME280;35715;51.570;6.036;2023-07-13T06:58:03;101477.72;;;19.77;68.60
49827;BME280;35715;51.570;6.036;2023-07-13T07:00:29;101480.59;;;19.83;68.56
49827;BME280;35715;51.570;6.036;2023-07-13T07:02:54;101481.69;;;19.88;68.38
49827;BME280;35715;51.570;6.036;2023-07-13T07:05:19;101484.19;;;19.85;68.25
49827;BME280;35715;51.570;6.036;2023-07-13T07:07:48;101487.19;;;19.94;67.96
49827;BME280;35715;51.570;6.036;2023-07-13T07:10:13;101485.63;;;19.99;68.12
49827;BME280;35715;51.570;6.036;2023-07-13T07:12:38;101489.06;;;20.21;67.09
49827;BME280;35715;51.570;6.036;2023-07-13T07:15:04;101480.03;;;20.35;66.95
49827;BME280;35715;51.570;6.036;2023-07-13T07:17:30;101490.44;;;20.34;66.58
49827;BME280;35715;51.570;6.036;2023-07-13T07:19:55;101492.66;;;20.46;66.43
49827;BME280;35715;51.570;6.036;2023-07-13T07:22:21;101490.53;;;20.60;66.28
49827;BME280;35715;51.570;6.036;2023-07-13T07:24:46;101497.13;;;20.72;65.97
49827;BME280;35715;51.570;6.036;2023-07-13T07:27:12;101498.16;;;20.76;65.29
49827;BME280;35715;51.570;6.036;2023-07-13T07:29:37;101503.25;;;20.71;64.72
49827;BME280;35715;51.570;6.036;2023-07-13T07:32:03;101508.31;;;20.67;64.81
49827;BME280;35715;51.570;6.036;2023-07-13T07:34:29;101501.97;;;20.62;64.93
49827;BME280;35715;51.570;6.036;2023-07-13T07:36:58;101502.22;;;20.68;64.99
49827;BME280;35715;51.570;6.036;2023-07-13T07:39:24;101505.75;;;20.68;64.64
49827;BME280;35715;51.570;6.036;2023-07-13T07:41:49;101505.66;;;20.65;64.82
49827;BME280;35715;51.570;6.036;2023-07-13T07:44:15;101502.16;;;20.66;65.33
49827;BME280;35715;51.570;6.036;2023-07-13T07:46:40;101507.41;;;20.66;64.60
49827;BME280;35715;51.570;6.036;2023-07-13T07:49:06;101506.53;;;20.66;65.20
49827;BME280;35715;51.570;6.036;2023-07-13T07:51:31;101512.88;;;20.72;65.35
49827;BME280;35715;51.570;6.036;2023-07-13T07:53:57;101513.00;;;20.76;65.20
49827;BME280;35715;51.570;6.036;2023-07-13T07:56:22;101505.00;;;20.72;65.49
49827;BME280;35715;51.570;6.036;2023-07-13T07:58:48;101510.69;;;20.83;65.18
49827;BME280;35715;51.570;6.036;2023-07-13T08:01:13;101516.19;;;20.91;64.95
49827;BME280;35715;51.570;6.036;2023-07-13T08:03:39;101506.81;;;20.98;64.37
49827;BME280;35715;51.570;6.036;2023-07-13T08:06:04;101515.50;;;20.97;64.47
49827;BME280;35715;51.570;6.036;2023-07-13T08:08:29;101512.22;;;21.02;64.56
49827;BME280;35715;51.570;6.036;2023-07-13T08:10:55;101508.66;;;21.00;63.87
49827;BME280;35715;51.570;6.036;2023-07-13T08:13:20;101510.25;;;20.97;64.62
49827;BME280;35715;51.570;6.036;2023-07-13T08:15:46;101515.97;;;20.85;64.47
49827;BME280;35715;51.570;6.036;2023-07-13T08:18:12;101507.31;;;20.87;64.33
49827;BME280;35715;51.570;6.036;2023-07-13T08:20:40;101510.63;;;20.82;64.49
49827;BME280;35715;51.570;6.036;2023-07-13T08:23:08;101508.81;;;20.81;65.22
49827;BME280;35715;51.570;6.036;2023-07-13T08:25:34;101505.66;;;20.89;64.86
49827;BME280;35715;51.570;6.036;2023-07-13T08:28:00;101505.84;;;21.20;64.46
49827;BME280;35715;51.570;6.036;2023-07-13T08:30:26;101512.38;;;21.33;64.23
49827;BME280;35715;51.570;6.036;2023-07-13T08:32:53;101516.03;;;21.36;63.61
49827;BME280;35715;51.570;6.036;2023-07-13T08:35:19;101514.53;;;21.44;63.91
49827;BME280;35715;51.570;6.036;2023-07-13T08:37:44;101509.16;;;21.66;63.93
49827;BME280;35715;51.570;6.036;2023-07-13T08:40:11;101508.47;;;21.71;63.02
49827;BME280;35715;51.570;6.036;2023-07-13T08:42:42;101509.31;;;21.70;62.75
49827;BME280;35715;51.570;6.036;2023-07-13T08:47:48;101510.78;;;22.17;60.92
49827;BME280;35715;51.570;6.036;2023-07-13T08:50:23;101507.06;;;22.39;60.95
49827;BME280;35715;51.570;6.036;2023-07-13T08:52:50;101504.94;;;22.56;59.55
49827;BME280;35715;51.570;6.036;2023-07-13T08:55:36;101504.25;;;22.93;58.04
49827;BME280;35715;51.570;6.036;2023-07-13T08:58:22;101504.28;;;23.62;57.32
49827;BME280;35715;51.570;6.036;2023-07-13T09:01:05;101501.31;;;23.84;54.52
49827;BME280;35715;51.570;6.036;2023-07-13T09:04:09;101499.22;;;25.37;50.72
49827;BME280;35715;51.570;6.036;2023-07-13T09:06:58;101509.91;;;26.64;48.27
49827;BME280;35715;51.570;6.036;2023-07-13T09:12:19;101494.50;;;28.06;45.81
49827;BME280;35715;51.570;6.036;2023-07-13T09:14:54;101510.94;;;27.60;44.72
49827;BME280;35715;51.570;6.036;2023-07-13T09:17:28;101497.22;;;28.20;42.55
49827;BME280;35715;51.570;6.036;2023-07-13T09:20:40;101503.81;;;29.44;40.92
49827;BME280;35715;51.570;6.036;2023-07-13T09:23:04;101507.22;;;28.85;40.50
49827;BME280;35715;51.570;6.036;2023-07-13T09:25:34;101502.00;;;29.98;39.15
49827;BME280;35715;51.570;6.036;2023-07-13T09:28:08;101506.94;;;30.94;38.29
49827;BME280;35715;51.570;6.036;2023-07-13T09:33:28;101508.72;;;31.00;36.39
49827;BME280;35715;51.570;6.036;2023-07-13T09:35:55;101501.00;;;31.74;35.28
49827;BME280;35715;51.570;6.036;2023-07-13T09:38:24;101497.50;;;32.50;34.73
49827;BME280;35715;51.570;6.036;2023-07-13T09:41:21;101497.25;;;31.95;34.70
49827;BME280;35715;51.570;6.036;2023-07-13T09:44:12;101499.84;;;32.01;34.36
49827;BME280;35715;51.570;6.036;2023-07-13T09:46:38;101492.88;;;32.63;33.61
49827;BME280;35715;51.570;6.036;2023-07-13T09:49:04;101500.44;;;31.34;35.48
49827;BME280;35715;51.570;6.036;2023-07-13T09:51:30;101503.69;;;30.22;35.58
49827;BME280;35715;51.570;6.036;2023-07-13T09:53:58;101501.06;;;29.19;37.43
49827;BME280;35715;51.570;6.036;2023-07-13T09:56:27;101497.28;;;28.38;39.05
49827;BME280;35715;51.570;6.036;2023-07-13T09:58:53;101509.88;;;28.89;38.84
49827;BME280;35715;51.570;6.036;2023-07-13T10:01:34;101498.31;;;28.63;38.88
49827;BME280;35715;51.570;6.036;2023-07-13T10:04:00;101510.47;;;28.18;39.84
49827;BME280;35715;51.570;6.036;2023-07-13T10:06:25;101513.56;;;27.60;41.17
49827;BME280;35715;51.570;6.036;2023-07-13T10:08:52;101515.78;;;27.12;42.23
49827;BME280;35715;51.570;6.036;2023-07-13T10:11:23;101505.53;;;26.63;42.14
49827;BME280;35715;51.570;6.036;2023-07-13T10:13:59;101508.38;;;27.68;40.91
49827;BME280;35715;51.570;6.036;2023-07-13T10:16:34;101505.50;;;28.98;39.13
49827;BME280;35715;51.570;6.036;2023-07-13T10:19:24;101500.25;;;29.55;37.38
49827;BME280;35715;51.570;6.036;2023-07-13T10:22:02;101506.31;;;30.41;37.05
49827;BME280;35715;51.570;6.036;2023-07-13T10:24:37;101505.13;;;30.96;36.19
49827;BME280;35715;51.570;6.036;2023-07-13T10:32:12;101512.81;;;31.44;33.35
49827;BME280;35715;51.570;6.036;2023-07-13T10:34:43;101506.94;;;30.94;33.99
49827;BME280;35715;51.570;6.036;2023-07-13T10:37:20;101505.50;;;30.13;35.70
49827;BME280;35715;51.570;6.036;2023-07-13T10:39:47;101501.97;;;29.02;37.16
49827;BME280;35715;51.570;6.036;2023-07-13T10:42:18;101504.63;;;29.04;37.10
49827;BME280;35715;51.570;6.036;2023-07-13T10:44:49;101496.66;;;30.06;35.80
49827;BME280;35715;51.570;6.036;2023-07-13T10:47:16;101495.44;;;30.89;34.54
49827;BME280;35715;51.570;6.036;2023-07-13T10:49:44;101497.31;;;30.67;35.00
49827;BME280;35715;51.570;6.036;2023-07-13T10:55:03;101512.38;;;30.75;34.62
49827;BME280;35715;51.570;6.036;2023-07-13T10:57:28;101496.56;;;30.26;34.26
49827;BME280;35715;51.570;6.036;2023-07-13T11:02:30;101506.44;;;29.59;37.37
49827;BME280;35715;51.570;6.036;2023-07-13T11:04:56;101494.78;;;30.39;36.16
49827;BME280;35715;51.570;6.036;2023-07-13T11:07:30;101508.97;;;30.38;34.71
49827;BME280;35715;51.570;6.036;2023-07-13T11:09:59;101505.56;;;29.68;36.05
49827;BME280;35715;51.570;6.036;2023-07-13T11:12:49;101509.88;;;28.84;37.45
49827;BME280;35715;51.570;6.036;2023-07-13T11:15:44;101498.41;;;29.00;37.25
49827;BME280;35715;51.570;6.036;2023-07-13T11:18:22;101501.94;;;30.20;36.25
49827;BME280;35715;51.570;6.036;2023-07-13T11:20:49;101500.25;;;29.52;36.82
49827;BME280;35715;51.570;6.036;2023-07-13T11:23:19;101499.25;;;28.79;35.99
49827;BME280;35715;51.570;6.036;2023-07-13T11:25:47;101502.53;;;28.23;36.61
49827;BME280;35715;51.570;6.036;2023-07-13T11:33:48;101518.59;;;27.29;39.19
49827;BME280;35715;51.570;6.036;2023-07-13T11:36:17;101510.34;;;26.98;39.34
49827;BME280;35715;51.570;6.036;2023-07-13T11:41:28;101519.66;;;26.65;40.63
49827;BME280;35715;51.570;6.036;2023-07-13T11:44:05;101524.66;;;26.41;41.60
49827;BME280;35715;51.570;6.036;2023-07-13T11:46:30;101527.03;;;26.24;42.12
49827;BME280;35715;51.570;6.036;2023-07-13T11:48:56;101522.69;;;26.26;42.67
49827;BME280;35715;51.570;6.036;2023-07-13T11:51:25;101539.31;;;26.18;42.65
49827;BME280;35715;51.570;6.036;2023-07-13T11:53:54;101544.44;;;26.06;42.99
49827;BME280;35715;51.570;6.036;2023-07-13T11:56:20;101547.72;;;25.93;42.74
49827;BME280;35715;51.570;6.036;2023-07-13T11:58:55;101547.66;;;25.88;42.90
49827;BME280;35715;51.570;6.036;2023-07-13T12:01:26;101554.97;;;26.03;43.37
49827;BME280;35715;51.570;6.036;2023-07-13T12:03:54;101557.16;;;27.02;42.18
49827;BME280;35715;51.570;6.036;2023-07-13T12:06:31;101539.72;;;28.29;40.59
49827;BME280;35715;51.570;6.036;2023-07-13T12:09:01;101534.75;;;29.17;39.00
49827;BME280;35715;51.570;6.036;2023-07-13T12:11:29;101531.25;;;29.75;38.55
49827;BME280;35715;51.570;6.036;2023-07-13T12:13:55;101525.97;;;29.87;37.56
49827;BME280;35715;51.570;6.036;2023-07-13T12:16:32;101525.91;;;29.19;37.48
49827;BME280;35715;51.570;6.036;2023-07-13T12:19:00;101531.00;;;28.56;38.88
49827;BME280;35715;51.570;6.036;2023-07-13T12:21:36;101540.34;;;27.89;39.35
49827;BME280;35715;51.570;6.036;2023-07-13T12:24:03;101540.03;;;27.54;40.43
49827;BME280;35715;51.570;6.036;2023-07-13T12:26:30;101545.97;;;27.30;41.25
49827;BME280;35715;51.570;6.036;2023-07-13T12:28:58;101551.09;;;27.11;42.15
49827;BME280;35715;51.570;6.036;2023-07-13T12:34:00;101541.31;;;27.07;42.27
49827;BME280;35715;51.570;6.036;2023-07-13T12:36:30;101541.22;;;26.96;42.28
49827;BME280;35715;51.570;6.036;2023-07-13T12:38:57;101550.38;;;26.54;44.57
49827;BME280;35715;51.570;6.036;2023-07-13T12:41:29;101561.81;;;25.93;45.20
49827;BME280;35715;51.570;6.036;2023-07-13T12:43:54;101564.81;;;25.61;48.61
49827;BME280;35715;51.570;6.036;2023-07-13T12:46:23;101566.34;;;25.47;52.00
49827;BME280;35715;51.570;6.036;2023-07-13T12:48:52;101558.91;;;25.27;53.84
49827;BME280;35715;51.570;6.036;2023-07-13T12:51:22;101563.06;;;25.14;56.92
49827;BME280;35715;51.570;6.036;2023-07-13T12:53:49;101573.50;;;25.08;55.40
49827;BME280;35715;51.570;6.036;2023-07-13T12:56:22;101581.25;;;24.99;55.90
49827;BME280;35715;51.570;6.036;2023-07-13T12:58:49;101592.31;;;24.81;57.54
49827;BME280;35715;51.570;6.036;2023-07-13T13:01:21;101587.63;;;24.68;61.77
49827;BME280;35715;51.570;6.036;2023-07-13T13:03:50;101580.44;;;24.59;60.52
49827;BME280;35715;51.570;6.036;2023-07-13T13:06:26;101574.06;;;24.51;61.10
49827;BME280;35715;51.570;6.036;2023-07-13T13:08:54;101568.25;;;24.66;60.20
49827;BME280;35715;51.570;6.036;2023-07-13T13:11:22;101568.78;;;24.92;61.76
49827;BME280;35715;51.570;6.036;2023-07-13T13:13:49;101565.72;;;25.16;63.30
49827;BME280;35715;51.570;6.036;2023-07-13T13:16:21;101558.66;;;25.13;57.09
49827;BME280;35715;51.570;6.036;2023-07-13T13:18:47;101554.50;;;24.80;56.15
49827;BME280;35715;51.570;6.036;2023-07-13T13:21:13;101556.38;;;24.86;58.53
49827;BME280;35715;51.570;6.036;2023-07-13T13:23:38;101559.19;;;24.95;60.76